• Join FlightAware (Why Join?)
  • Login
  • US Flag 
07:02PM EDT


 

Airport Tracker/Info


-or-


 

Live Flight TrackerFlight Track Log ✈ VH-OBW ✈ 26-Oct-2013 ✈ YBAF - YBAF

Flight Track Log - Related Links

Times and Time Zones

All times are in EDT time to prevent confusion due to time zone crossing. See the VH-OBW flight status page for this flight to view local times or setup timezone preferences in your user account.

Time Position Orientation Groundspeed Altitude Reporting Facility
EDT Latitude Longitude Course Direction KTS MPH feet Rate Location/Type
08:52PM -27.5712 152.9795 245° Southwest 74 85 800  Level Aus ATC (RADAR)
08:53PM -27.5769 152.9654 245° Southwest 81 93 1,100 300 Climbing Aus ATC (RADAR)
08:54PM -27.5825 152.9475 251° West 99 114 1,200 480 Climbing Aus ATC (RADAR)
08:54PM -27.5888 152.9284 250° West 109 125 1,700 480 Climbing Aus ATC (RADAR)
08:55PM -27.5980 152.8945 253° West 97 112 2,100 360 Climbing Aus ATC (RADAR)
08:56PM -27.6005 152.8822 257° West 95 109 2,300 360 Climbing Aus ATC (RADAR)
08:56PM -27.6056 152.8653 251° West 97 112 2,500 360 Climbing Aus ATC (RADAR)
08:57PM -27.6111 152.8433 254° West 96 110 2,800 300 Climbing Aus ATC (RADAR)
08:58PM -27.6150 152.8251 257° West 101 116 2,900 180 Climbing Aus ATC (RADAR)
08:58PM -27.6195 152.8026 257° West 98 113 3,100 300 Climbing Aus ATC (RADAR)
08:59PM -27.6246 152.7903 245° Southwest 102 117 3,300 300 Climbing Aus ATC (RADAR)
08:59PM -27.6279 152.7732 257° West 98 113 3,400 300 Climbing Aus ATC (RADAR)
09:00PM -27.6328 152.7455 259° West 94 108 3,800 300 Climbing Aus ATC (RADAR)
09:01PM -27.6344 152.7321 262° West 100 115 3,800 180 Level Aus ATC (RADAR)
09:01PM -27.6399 152.7137 252° West 104 120 4,000  Climbing Aus ATC (RADAR)
09:02PM -27.6278 152.6973 310° West 103 119 3,800 -240 Descending Aus ATC (RADAR)
09:03PM -27.6224 152.7215 76° East 135 155 3,700 240 Descending Aus ATC (RADAR)
09:03PM -27.6433 152.7272 166° South 119 137 4,100 180 Climbing Aus ATC (RADAR)
09:04PM -27.6605 152.7329 164° South 126 145 3,900 -240 Descending Aus ATC (RADAR)
09:04PM -27.6797 152.7402 161° South 126 145 3,900 -120 Level Aus ATC (RADAR)
09:05PM -27.6889 152.7236 238° Southwest 110 127 3,800 -120 Descending Aus ATC (RADAR)
09:06PM -27.6746 152.7252 North 111 128 3,800 -120 Level Aus ATC (RADAR)
09:06PM -27.6569 152.7278 North 108 124 3,700 120 Descending Aus ATC (RADAR)
09:07PM -27.6353 152.7346 16° North 106 122 4,000 360 Climbing Aus ATC (RADAR)
09:08PM -27.6181 152.7401 16° North 112 129 4,200 300 Climbing Aus ATC (RADAR)
09:08PM -27.6092 152.7245 303° West 107 123 4,400 300 Climbing Aus ATC (RADAR)
09:09PM -27.6008 152.6930 287° West 107 123 4,700 360 Climbing Aus ATC (RADAR)
09:10PM -27.5944 152.6578 281° West 107 123 5,200 360 Climbing Aus ATC (RADAR)
09:11PM -27.5903 152.6368 283° West 102 117 5,400 240 Climbing Aus ATC (RADAR)
09:12PM -27.5867 152.6243 288° West 98 113 5,500 180 Climbing Aus ATC (RADAR)
09:12PM -27.5795 152.6073 295° West 97 112 5,600 360 Climbing Aus ATC (RADAR)
09:13PM -27.5765 152.5831 278° West 100 115 6,000 180 Climbing Aus ATC (RADAR)
09:13PM -27.5740 152.5640 278° West 104 120 5,900 -120 Descending Aus ATC (RADAR)
09:14PM -27.5708 152.5434 280° West 115 132 5,900 60 Level Aus ATC (RADAR)
09:15PM -27.5684 152.5248 278° West 106 122 6,000 60 Climbing Aus ATC (RADAR)
09:16PM -27.5638 152.4893 278° West 116 133 6,000  Level Aus ATC (RADAR)
09:16PM -27.5607 152.4624 278° West 126 145 6,000  Level Aus ATC (RADAR)
09:17PM -27.5576 152.4409 279° West 120 138 6,000  Level Aus ATC (RADAR)
09:18PM -27.5545 152.4135 277° West 115 132 6,000  Level Aus ATC (RADAR)
09:18PM -27.5518 152.3992 282° West 109 125 6,000  Level Aus ATC (RADAR)
09:19PM -27.5498 152.3793 277° West 107 123 6,000  Level Aus ATC (RADAR)
09:19PM -27.5454 152.3518 280° West 117 135 6,000  Level Aus ATC (RADAR)
09:20PM -27.5435 152.3303 276° West 117 135 6,000  Level Aus ATC (RADAR)
09:21PM -27.5361 152.2986 285° West 113 130 6,000  Level Aus ATC (RADAR)
09:21PM -27.5318 152.2841 289° West 115 132 6,000  Level Aus ATC (RADAR)
09:22PM -27.5269 152.2642 285° West 111 128 6,000  Level Aus ATC (RADAR)
09:23PM -27.5205 152.2385 286° West 113 130 6,000  Level Aus ATC (RADAR)
09:23PM -27.5167 152.2177 282° West 115 132 6,000  Level Aus ATC (RADAR)
09:24PM -27.5128 152.1998 284° West 117 135 6,000  Level Aus ATC (RADAR)
09:24PM -27.5055 152.1716 286° West 125 144 6,000  Level Aus ATC (RADAR)
09:25PM -27.4996 152.1511 288° West 117 135 6,000  Level Aus ATC (RADAR)
09:26PM -27.4907 152.1155 286° West 115 132 6,000  Level Aus ATC (RADAR)
09:26PM -27.4869 152.1006 286° West 115 132 6,000  Level Aus ATC (RADAR)
09:27PM -27.4814 152.0797 286° West 118 136 6,000  Level Aus ATC (RADAR)
09:28PM -27.4740 152.0539 288° West 113 130 6,000  Level Aus ATC (RADAR)
09:28PM -27.4686 152.0329 286° West 116 133 6,000  Level Aus ATC (RADAR)
09:29PM -27.4606 152.0022 286° West 123 142 6,000  Level Aus ATC (RADAR)
09:30PM -27.4571 151.9871 285° West 121 139 6,000  Level Aus ATC (RADAR)
09:30PM -27.4515 151.9661 287° West 119 137 6,000  Level Aus ATC (RADAR)
09:31PM -27.4423 151.9289 286° West 122 140 6,000  Level Aus ATC (RADAR)
09:32PM -27.4381 151.9138 287° West 123 142 6,000  Level Aus ATC (RADAR)
09:32PM -27.4325 151.8929 287° West 120 138 6,000  Level Aus ATC (RADAR)
09:33PM -27.4249 151.8683 289° West 108 124 6,000  Level Aus ATC (RADAR)
09:33PM -27.4186 151.8464 288° West 123 142 6,000  Level Aus ATC (RADAR)
09:34PM -27.4130 151.8253 287° West 121 139 6,000  Level Aus ATC (RADAR)
09:35PM -27.4082 151.8071 287° West 120 138 6,000  Level Aus ATC (RADAR)
09:35PM -27.4021 151.7864 288° West 119 137 6,000  Level Aus ATC (RADAR)
09:36PM -27.3948 151.7507 283° West 114 131 6,000  Level Aus ATC (RADAR)
09:37PM -27.3862 151.7400 312° West 108 124 6,000 -240 Level Aus ATC (RADAR)
09:37PM -27.3721 151.7259 318° Northwest 114 131 5,800 -480 Descending Aus ATC (RADAR)
09:38PM -27.3480 151.7021 319° Northwest 128 147 5,300 -480 Descending Aus ATC (RADAR)
09:39PM -27.3299 151.6919 333° Northwest 129 148 5,100 -600 Descending Aus ATC (RADAR)
09:39PM -27.3098 151.6726 320° Northwest 130 150 4,500 -720 Descending Aus ATC (RADAR)
09:40PM -27.2989 151.6625 320° Northwest 123 142 4,300 -420 Descending Aus ATC (RADAR)
09:40PM -27.2815 151.6493 326° Northwest 128 147 4,100 -360 Descending Aus ATC (RADAR)
09:41PM -27.2472 151.6438 352° North 148 170 3,800 -180 Descending Aus ATC (RADAR)
09:42PM -27.2372 151.6559 47° Northeast 131 151 3,900 -240 Climbing Aus ATC (RADAR)
09:42PM -27.2233 151.6405 315° West 123 142 3,600 -120 Descending Aus ATC (RADAR)
09:43PM -27.2454 151.6283 206° Southwest 126 145 3,800 180 Climbing Aus ATC (RADAR)
09:44PM -27.2625 151.6411 146° Southeast 129 148 3,900 60 Climbing Aus ATC (RADAR)
09:44PM -27.2828 151.6466 166° South 127 146 3,900  Level Aus ATC (RADAR)
09:45PM -27.2978 151.6590 144° Southeast 141 162 3,900 -300 Level Aus ATC (RADAR)
09:45PM -27.3167 151.6707 151° Southeast 138 159 3,600 -840 Descending Aus ATC (RADAR)
09:46PM -27.3438 151.6929 144° Southeast 119 137 2,600 -900 Descending Aus ATC (RADAR)
09:47PM -27.3552 151.7003 150° Southeast 112 129 2,400 -600 Descending Aus ATC (RADAR)
09:47PM -27.3705 151.7131 144° Southeast 115 132 2,000 -540 Descending Aus ATC (RADAR)
09:48PM -27.3897 151.7279 145° Southeast 107 123 1,700 -120 Descending Aus ATC (RADAR)
09:49PM -27.4047 151.7391 147° Southeast 109 125 1,900 420 Climbing Aus ATC (RADAR)
09:49PM -27.4197 151.7540 139° Southeast 96 110 2,300 660 Climbing Aus ATC (RADAR)
09:50PM -27.4303 151.7606 151° Southeast 100 115 2,700 780 Climbing Aus ATC (RADAR)
09:50PM -27.4460 151.7661 163° South 100 115 3,100 600 Climbing Aus ATC (RADAR)
09:51PM -27.4707 151.7767 159° South 95 109 3,700 420 Climbing Aus ATC (RADAR)
09:52PM -27.4816 151.7841 149° Southeast 90 104 3,800 240 Climbing Aus ATC (RADAR)
09:53PM -27.4954 151.7924 152° Southeast 95 109 4,000 300 Climbing Aus ATC (RADAR)
09:53PM -27.4944 151.8166 87° East 112 129 4,200 480 Climbing Aus ATC (RADAR)
09:54PM -27.4985 151.8364 103° East 112 129 4,700 240 Climbing Aus ATC (RADAR)
09:54PM -27.4987 151.8569 91° East 112 129 4,500 240 Descending Aus ATC (RADAR)
09:55PM -27.4980 151.8800 88° East 122 140 5,000 600 Climbing Aus ATC (RADAR)
09:56PM -27.5043 151.9015 108° East 123 142 5,200 120 Climbing Aus ATC (RADAR)
09:56PM -27.5141 151.9362 108° East 139 160 5,200  Level Aus ATC (RADAR)
09:57PM -27.5184 151.9541 105° East 141 162 5,200 -240 Level Aus ATC (RADAR)
09:57PM -27.5253 151.9802 107° East 148 170 5,000 -240 Descending Aus ATC (RADAR)
09:58PM -27.5344 152.0137 107° East 146 168 4,900 -120 Descending Aus ATC (RADAR)
09:59PM -27.5412 152.0372 108° East 134 154 4,900 60 Level Aus ATC (RADAR)
09:59PM -27.5474 152.0593 108° East 132 152 5,000 60 Climbing Aus ATC (RADAR)
10:00PM -27.5534 152.0810 107° East 141 162 5,000  Level Aus ATC (RADAR)
10:00PM -27.5588 152.1071 103° East 145 167 5,000  Level Aus ATC (RADAR)
10:02PM -27.5661 152.1607 99° East 143 165 5,000 -120 Level Aus ATC (RADAR)
10:02PM -27.5693 152.1778 102° East 136 157 4,900  Descending Aus ATC (RADAR)
10:03PM -27.5728 152.2027 99° East 135 155 5,000 -120 Climbing Aus ATC (RADAR)
10:03PM -27.5791 152.2343 103° East 134 154 4,800 -120 Descending Aus ATC (RADAR)
10:04PM -27.5820 152.2584 98° East 131 151 4,900 60 Climbing Aus ATC (RADAR)
10:05PM -27.5883 152.2885 103° East 129 148 4,900 -300 Level Aus ATC (RADAR)
10:05PM -27.6004 152.2978 146° Southeast 122 140 4,600 -120 Descending Aus ATC (RADAR)
10:06PM -27.6037 152.2707 262° West 131 151 4,800 180 Climbing Aus ATC (RADAR)
10:07PM -27.6191 152.2425 238° Southwest 120 138 4,900 -120 Climbing Aus ATC (RADAR)
10:07PM -27.6251 152.2287 244° Southwest 119 137 4,700 -120 Descending Aus ATC (RADAR)
10:08PM -27.6393 152.2131 224° Southwest 120 138 4,800 60 Climbing Aus ATC (RADAR)
10:08PM -27.6578 152.1990 214° Southwest 107 123 4,800  Level Aus ATC (RADAR)
10:09PM -27.6743 152.1879 211° Southwest 117 135 4,800 -120 Level Aus ATC (RADAR)
10:10PM -27.6891 152.2163 120° Southeast 140 161 4,700 60 Descending Aus ATC (RADAR)
10:10PM -27.6956 152.2325 114° Southeast 136 157 4,900 480 Climbing Aus ATC (RADAR)
10:11PM -27.6981 152.2556 97° East 126 145 5,200 -120 Climbing Aus ATC (RADAR)
10:12PM -27.6778 152.2299 312° West 131 151 4,800 -480 Descending Aus ATC (RADAR)
10:12PM -27.6775 152.2154 271° West 116 133 4,600 -120 Descending Aus ATC (RADAR)
10:13PM -27.6661 152.1991 308° West 111 128 4,700 120 Climbing Aus ATC (RADAR)
10:13PM -27.6526 152.1762 304° West 116 133 4,800 120 Climbing Aus ATC (RADAR)
10:14PM -27.6469 152.1555 287° West 117 135 4,900  Climbing Aus ATC (RADAR)
10:15PM -27.6406 152.1353 289° West 115 132 4,800 -480 Descending Aus ATC (RADAR)
10:15PM -27.6336 152.1158 292° West 115 132 4,400 -180 Descending Aus ATC (RADAR)
10:16PM -27.6256 152.0970 296° West 113 130 4,600 -120 Climbing Aus ATC (RADAR)
10:17PM -27.6088 152.0595 297° West 114 131 4,200 -360 Descending Aus ATC (RADAR)
10:17PM -27.6027 152.0463 298° West 113 130 4,100 -300 Descending Aus ATC (RADAR)
10:18PM -27.5935 152.0244 295° West 115 132 3,900 -360 Descending Aus ATC (RADAR)
10:18PM -27.5812 152.0068 308° West 122 140 3,700 -480 Descending Aus ATC (RADAR)
10:19PM -27.5724 151.9872 297° West 120 138 3,400 -480 Descending Aus ATC (RADAR)
10:20PM -27.5613 151.9578 293° West 121 139 3,100 -420 Descending Aus ATC (RADAR)
10:20PM -27.5557 151.9439 295° West 119 137 2,900 -720 Descending Aus ATC (RADAR)
10:21PM -27.5463 151.9273 302° West 108 124 2,400  Descending Aus ATC (RADAR)
10:22PM -27.5604 151.9154 217° Southwest 124 143 2,900 840 Climbing Aus ATC (RADAR)
10:22PM -27.5713 151.9227 149° Southeast 114 131 3,500 960 Climbing Aus ATC (RADAR)
10:23PM -27.5866 151.9243 175° South 101 116 3,900 480 Climbing Aus ATC (RADAR)
10:23PM -27.6075 151.9264 175° South 102 117 4,200 360 Climbing Aus ATC (RADAR)
10:24PM -27.6220 151.9385 143° Southeast 112 129 4,400 420 Climbing Aus ATC (RADAR)
10:25PM -27.6194 151.9621 83° East 123 142 4,700 480 Climbing Aus ATC (RADAR)
10:25PM -27.6173 151.9879 85° East 123 142 5,000 120 Climbing Aus ATC (RADAR)
10:26PM -27.6151 152.0132 84° East 135 155 4,900 -60 Descending Aus ATC (RADAR)
10:27PM -27.6160 152.0604 91° East 141 162 4,900  Level Aus ATC (RADAR)
10:27PM -27.6157 152.0775 89° East 132 152 4,900  Level Aus ATC (RADAR)
10:28PM -27.6143 152.1028 87° East 136 157 4,900  Level Aus ATC (RADAR)
10:29PM -27.6073 152.1346 76° East 135 155 4,900  Level Aus ATC (RADAR)
10:29PM -27.6024 152.1589 77° East 134 154 4,900  Level Aus ATC (RADAR)
10:30PM -27.5979 152.1850 79° East 142 163 4,900  Level Aus ATC (RADAR)
10:30PM -27.5941 152.2074 79° East 144 166 4,900  Level Aus ATC (RADAR)
10:31PM -27.5896 152.2312 78° East 132 152 4,900  Level Aus ATC (RADAR)
10:32PM -27.5800 152.2773 77° East 140 161 4,900  Level Aus ATC (RADAR)
10:32PM -27.5762 152.2951 76° East 139 160 4,900  Level Aus ATC (RADAR)
10:33PM -27.5710 152.3203 77° East 139 160 4,900  Level Aus ATC (RADAR)
10:34PM -27.5658 152.3517 79° East 134 154 4,900  Level Aus ATC (RADAR)
10:34PM -27.5621 152.3763 80° East 135 155 4,900  Level Aus ATC (RADAR)
10:35PM -27.5577 152.4110 82° East 146 168 4,900  Level Aus ATC (RADAR)
10:36PM -27.5545 152.4294 79° East 143 165 4,900  Level Aus ATC (RADAR)
10:36PM -27.5547 152.4548 91° East 139 160 4,900 -120 Level Aus ATC (RADAR)
10:37PM -27.5566 152.4996 93° East 140 161 4,800 -300 Descending Aus ATC (RADAR)
10:38PM -27.5563 152.5181 89° East 139 160 4,500 -300 Descending Aus ATC (RADAR)
10:38PM -27.5584 152.5453 95° East 146 168 4,500 -120 Level Aus ATC (RADAR)
10:39PM -27.5603 152.5839 93° East 145 167 4,400 -480 Descending Aus ATC (RADAR)
10:40PM -27.5613 152.6097 92° East 140 161 3,900 -480 Descending Aus ATC (RADAR)
10:40PM -27.5625 152.6440 92° East 143 165 3,800 -300 Descending Aus ATC (RADAR)
10:41PM -27.5639 152.6626 95° East 141 162 3,600 -420 Descending Aus ATC (RADAR)
10:41PM -27.5657 152.6892 94° East 141 162 3,400 -300 Descending Aus ATC (RADAR)
10:42PM -27.5679 152.7341 93° East 140 161 3,200 -540 Descending Aus ATC (RADAR)
10:43PM -27.5700 152.7522 98° East 138 159 2,700 -420 Descending Aus ATC (RADAR)
10:43PM -27.5692 152.7777 88° East 136 157 2,800 60 Climbing Aus ATC (RADAR)
10:44PM -27.5675 152.8089 87° East 146 168 2,800 60 Level Aus ATC (RADAR)
10:45PM -27.5651 152.8342 84° East 139 160 2,900 -480 Climbing Aus ATC (RADAR)
10:45PM -27.5641 152.8609 88° East 143 165 2,300 -780 Descending Aus ATC (RADAR)
10:46PM -27.5635 152.8887 89° East 147 169 2,000 -540 Descending Aus ATC (RADAR)
10:46PM -27.5663 152.9156 97° East 145 167 1,700 -540 Descending Aus ATC (RADAR)
10:47PM -27.5711 152.9540 98° East 145 167 1,300 -540 Descending Aus ATC (RADAR)
10:48PM -27.5744 152.9720 102° East 140 161 1,100 -360 Descending Aus ATC (RADAR)
10:48PM -27.5799 152.9911 108° East 128 147 1,000 -120 Descending Aus ATC (RADAR)
10:49PM -27.5880 153.0168 109° East 115 132 1,000 -360 Level Aus ATC (RADAR)
10:49PM -27.5771 153.0262 38° Northeast 101 116 600 -720 Descending Aus ATC (RADAR)
10:50PM -27.5757 153.0094 275° West 77 89 -900 Descending Aus ATC (RADAR)